createdAt,value
2023-05-19T00:00:11.227Z,5.40
2023-05-19T00:03:01.036Z,6.20
2023-05-19T00:05:30.986Z,7.30
2023-05-19T00:08:01.820Z,4.90
2023-05-19T00:10:33.891Z,5.80
2023-05-19T00:13:03.371Z,6.10
2023-05-19T00:15:33.092Z,6.00
2023-05-19T00:18:02.401Z,6.30
2023-05-19T00:20:31.609Z,5.70
2023-05-19T00:23:00.675Z,7.20
2023-05-19T00:25:29.651Z,5.60
2023-05-19T00:27:59.645Z,7.30
2023-05-19T00:30:29.633Z,6.50
2023-05-19T00:32:58.842Z,5.90
2023-05-19T00:35:27.673Z,6.40
2023-05-19T00:37:56.556Z,6.00
2023-05-19T00:40:25.730Z,6.20
2023-05-19T00:42:54.656Z,6.10
2023-05-19T00:45:23.745Z,6.20
2023-05-19T00:47:52.901Z,6.30
2023-05-19T00:50:21.826Z,6.90
2023-05-19T00:52:51.977Z,6.50
2023-05-19T00:55:23.161Z,6.80
2023-05-19T00:57:52.270Z,6.70
2023-05-19T01:00:21.617Z,6.40
2023-05-19T01:02:50.800Z,6.50
2023-05-19T01:05:19.983Z,5.70
2023-05-19T01:07:54.800Z,8.10
2023-05-19T01:10:23.928Z,6.90
2023-05-19T01:12:53.207Z,7.40
2023-05-19T01:15:22.409Z,6.30
2023-05-19T01:18:11.896Z,7.20
2023-05-19T01:20:53.056Z,5.70
2023-05-19T01:23:43.852Z,6.00
2023-05-19T01:26:37.731Z,6.60
2023-05-19T01:29:54.848Z,6.80
2023-05-19T01:32:23.929Z,7.70
2023-05-19T01:34:53.118Z,7.60
2023-05-19T01:37:22.325Z,7.70
2023-05-19T01:39:51.426Z,6.60
2023-05-19T01:42:20.420Z,7.10
2023-05-19T01:44:49.408Z,6.40
2023-05-19T01:47:18.398Z,8.40
2023-05-19T01:49:47.380Z,6.70
2023-05-19T01:52:16.491Z,7.40
2023-05-19T01:54:45.378Z,6.20
2023-05-19T01:57:25.732Z,5.70
2023-05-19T02:00:13.357Z,7.60
2023-05-19T02:02:56.794Z,5.80
2023-05-19T02:05:54.117Z,7.30
2023-05-19T02:08:31.248Z,7.20
2023-05-19T02:11:16.979Z,7.30
2023-05-19T02:13:46.184Z,7.00
2023-05-19T02:16:15.373Z,7.50
2023-05-19T02:18:45.881Z,6.30
2023-05-19T02:21:14.936Z,8.20
2023-05-19T02:23:43.976Z,7.90
2023-05-19T02:26:12.893Z,7.00
2023-05-19T02:28:43.026Z,6.60
2023-05-19T02:31:11.921Z,8.10
2023-05-19T02:33:40.905Z,6.50
2023-05-19T02:36:11.041Z,7.30
2023-05-19T02:38:39.910Z,6.20
2023-05-19T02:41:08.901Z,7.40
2023-05-19T02:43:37.831Z,6.50
2023-05-19T02:46:07.040Z,7.40
2023-05-19T02:48:36.306Z,6.80
2023-05-19T02:51:05.868Z,11.20
2023-05-19T02:53:35.243Z,7.60
2023-05-19T02:56:04.799Z,8.10
2023-05-19T02:58:35.844Z,7.00
2023-05-19T03:01:04.941Z,7.70
2023-05-19T03:03:34.208Z,7.70
2023-05-19T03:06:03.233Z,7.30
2023-05-19T03:08:32.117Z,7.30
2023-05-19T03:11:01.274Z,7.50
2023-05-19T03:13:30.427Z,7.10
2023-05-19T03:15:59.840Z,7.10
2023-05-19T03:18:29.052Z,7.30
2023-05-19T03:20:58.104Z,7.80
2023-05-19T03:23:27.692Z,6.80
2023-05-19T03:25:56.812Z,7.20
2023-05-19T03:28:27.821Z,7.40
2023-05-19T03:30:56.768Z,7.90
2023-05-19T03:33:30.589Z,5.90
2023-05-19T03:36:00.161Z,8.20
2023-05-19T03:38:35.582Z,6.60
2023-05-19T03:41:05.001Z,8.70
2023-05-19T03:43:34.094Z,6.80
2023-05-19T03:46:05.457Z,6.90
2023-05-19T03:48:43.542Z,6.10
2023-05-19T03:51:26.427Z,8.80
2023-05-19T03:53:57.589Z,7.20
2023-05-19T03:56:28.137Z,7.40
2023-05-19T03:58:57.026Z,6.60
2023-05-19T04:01:25.890Z,7.20
2023-05-19T04:03:55.004Z,6.30
2023-05-19T04:06:25.644Z,7.30
2023-05-19T04:08:56.767Z,6.90
2023-05-19T04:11:25.987Z,6.40
2023-05-19T04:13:54.955Z,5.70
2023-05-19T04:16:24.243Z,7.70
2023-05-19T04:18:53.448Z,7.90
2023-05-19T04:21:23.074Z,7.30
2023-05-19T04:23:52.353Z,7.20
2023-05-19T04:26:22.890Z,6.20
2023-05-19T04:28:54.321Z,7.20
2023-05-19T04:31:23.622Z,6.30
2023-05-19T04:33:54.108Z,6.30
2023-05-19T04:36:24.697Z,6.60
2023-05-19T04:38:55.210Z,7.70
2023-05-19T04:41:25.960Z,6.30
2023-05-19T04:43:58.114Z,8.50
2023-05-19T04:46:30.522Z,7.50
2023-05-19T04:49:01.781Z,7.20
2023-05-19T04:51:31.943Z,5.30
2023-05-19T04:54:03.101Z,8.10
2023-05-19T04:56:32.103Z,7.30
2023-05-19T04:59:01.721Z,6.50
2023-05-19T05:01:31.669Z,6.90
2023-05-19T05:04:03.124Z,6.20
2023-05-19T05:06:32.952Z,6.90
2023-05-19T05:09:04.624Z,8.20
2023-05-19T05:11:34.543Z,6.20
2023-05-19T05:14:04.159Z,6.70
2023-05-19T05:16:34.828Z,7.30
2023-05-19T05:19:04.392Z,5.50
2023-05-19T05:21:33.876Z,6.30
2023-05-19T05:24:03.795Z,7.00
2023-05-19T05:26:34.792Z,6.30
2023-05-19T05:29:04.345Z,6.10
2023-05-19T05:31:33.920Z,5.40
2023-05-19T05:34:04.262Z,5.60
2023-05-19T05:36:35.581Z,6.80
2023-05-19T05:39:06.161Z,5.30
2023-05-19T05:41:38.512Z,5.90
2023-05-19T05:44:13.656Z,7.40
2023-05-19T05:46:44.694Z,5.20
2023-05-19T05:49:14.303Z,5.10
2023-05-19T05:51:54.621Z,6.30
2023-05-19T05:54:35.261Z,6.10
2023-05-19T05:57:04.743Z,6.10
2023-05-19T05:59:34.746Z,5.40
2023-05-19T06:02:04.603Z,5.30
2023-05-19T06:04:35.521Z,6.40
2023-05-19T06:07:06.727Z,6.50
2023-05-19T06:09:38.084Z,5.80
2023-05-19T06:12:08.712Z,6.10
2023-05-19T06:14:43.542Z,5.50
2023-05-19T06:17:18.976Z,6.00
2023-05-19T06:19:48.092Z,5.00
2023-05-19T06:22:17.472Z,5.30
2023-05-19T06:24:46.986Z,5.80
2023-05-19T06:27:16.243Z,7.80
2023-05-19T06:29:45.599Z,5.80
2023-05-19T06:32:15.382Z,5.70
2023-05-19T06:34:44.484Z,5.50
2023-05-19T06:37:17.444Z,5.80
2023-05-19T06:39:46.552Z,8.00
2023-05-19T06:42:15.937Z,6.70
2023-05-19T06:45:09.746Z,5.50
2023-05-19T06:47:44.924Z,6.60
2023-05-19T06:50:14.072Z,5.90
2023-05-19T06:52:44.769Z,5.70
2023-05-19T06:55:14.928Z,4.50
2023-05-19T06:57:44.535Z,5.20
2023-05-19T07:00:17.811Z,5.70
2023-05-19T07:05:19.894Z,5.80
2023-05-19T07:07:52.696Z,5.00
2023-05-19T07:10:25.233Z,5.20
2023-05-19T07:12:54.355Z,5.20
2023-05-19T07:15:26.516Z,6.30
2023-05-19T07:17:55.931Z,6.00
2023-05-19T07:20:27.194Z,6.50
2023-05-19T07:22:57.165Z,5.10
2023-05-19T07:25:29.216Z,4.80
2023-05-19T07:28:01.101Z,6.00
2023-05-19T07:30:30.812Z,8.10
2023-05-19T07:33:00.253Z,7.00
2023-05-19T07:35:29.517Z,5.60
2023-05-19T07:37:58.416Z,7.30
2023-05-19T07:40:27.692Z,5.70
2023-05-19T07:42:56.893Z,5.20
2023-05-19T07:45:26.095Z,5.30
2023-05-19T07:47:55.138Z,5.20
2023-05-19T07:50:24.630Z,6.40
2023-05-19T07:52:53.716Z,4.60
2023-05-19T07:55:23.642Z,9.80
2023-05-19T07:57:52.800Z,5.80
2023-05-19T08:00:22.298Z,5.40
2023-05-19T08:02:51.617Z,7.20
2023-05-19T08:05:20.691Z,6.60
2023-05-19T08:07:49.777Z,6.90
2023-05-19T08:10:18.971Z,7.70
2023-05-19T08:12:48.292Z,6.30
2023-05-19T08:15:17.500Z,7.00
2023-05-19T08:17:46.869Z,6.50
2023-05-19T08:20:17.698Z,7.00
2023-05-19T08:22:46.793Z,7.10
2023-05-19T08:25:16.322Z,6.40
2023-05-19T08:27:46.902Z,6.50
2023-05-19T08:30:16.154Z,5.80
2023-05-19T08:32:45.474Z,5.60
2023-05-19T08:35:14.538Z,7.40
2023-05-19T08:37:43.634Z,6.10
2023-05-19T08:40:16.556Z,6.10
2023-05-19T08:42:46.262Z,5.50
2023-05-19T08:45:15.523Z,7.10
2023-05-19T08:47:48.714Z,4.60
2023-05-19T08:50:21.683Z,4.90
2023-05-19T08:53:02.770Z,6.30
2023-05-19T08:55:42.887Z,5.10
2023-05-19T08:58:12.445Z,6.60
2023-05-19T09:00:41.810Z,6.30
2023-05-19T09:08:16.666Z,5.60
2023-05-19T09:10:45.882Z,5.20
2023-05-19T09:13:15.080Z,4.70
2023-05-19T09:15:44.398Z,5.70
2023-05-19T09:18:14.101Z,4.50
2023-05-19T09:20:44.727Z,5.70
2023-05-19T09:23:15.877Z,5.80
2023-05-19T09:25:52.888Z,5.30
2023-05-19T09:28:33.451Z,4.20
2023-05-19T09:31:03.468Z,4.90
2023-05-19T09:33:37.067Z,6.20
2023-05-19T09:36:07.960Z,5.70
2023-05-19T09:38:38.356Z,5.30
2023-05-19T09:41:07.986Z,5.60
2023-05-19T09:43:37.186Z,5.00
2023-05-19T09:46:13.732Z,5.00
2023-05-19T09:48:44.296Z,5.10
2023-05-19T09:51:13.708Z,5.90
2023-05-19T09:53:43.003Z,6.70
2023-05-19T09:56:13.013Z,7.50
2023-05-19T09:58:45.132Z,6.10
2023-05-19T10:01:16.644Z,4.70
2023-05-19T10:03:45.933Z,5.00
2023-05-19T10:06:16.214Z,5.50
2023-05-19T10:08:45.539Z,8.20
2023-05-19T10:11:14.436Z,7.20
2023-05-19T10:13:43.638Z,5.10
2023-05-19T10:16:12.628Z,5.30
2023-05-19T10:18:41.635Z,5.80
2023-05-19T10:21:10.618Z,5.30
2023-05-19T10:23:39.694Z,5.60
2023-05-19T10:26:08.806Z,5.60
2023-05-19T10:28:40.045Z,4.80
2023-05-19T10:31:12.031Z,7.40
2023-05-19T10:33:59.939Z,6.40
2023-05-19T10:36:44.963Z,6.60
2023-05-19T10:39:29.503Z,6.40
2023-05-19T10:42:14.938Z,5.50
2023-05-19T10:44:49.454Z,5.70
2023-05-19T10:47:28.037Z,5.80
2023-05-19T10:49:57.394Z,5.60
2023-05-19T10:52:26.450Z,5.40
2023-05-19T10:54:55.769Z,5.30
2023-05-19T10:57:28.665Z,5.50
2023-05-19T10:59:58.158Z,5.70
2023-05-19T11:02:45.624Z,5.50
2023-05-19T11:05:17.120Z,5.70
2023-05-19T11:08:06.201Z,5.60
2023-05-19T11:10:35.292Z,5.90
2023-05-19T11:13:06.547Z,6.00
2023-05-19T11:15:37.726Z,5.80
2023-05-19T11:18:06.720Z,5.80
2023-05-19T11:20:37.269Z,5.70
2023-05-19T11:23:11.005Z,6.60
2023-05-19T11:25:47.873Z,5.80
2023-05-19T11:28:20.461Z,5.50
2023-05-19T11:30:51.190Z,5.20
2023-05-19T11:33:21.065Z,6.20
2023-05-19T11:35:51.800Z,5.40
2023-05-19T11:38:21.550Z,6.00
2023-05-19T11:40:53.204Z,6.40
2023-05-19T11:43:25.904Z,6.20
2023-05-19T11:45:55.567Z,6.90
2023-05-19T11:48:25.756Z,6.90
2023-05-19T11:50:55.008Z,6.30
2023-05-19T11:53:24.004Z,6.60
2023-05-19T11:55:53.191Z,7.00
2023-05-19T11:58:27.438Z,6.20
2023-05-19T12:00:57.024Z,6.90
2023-05-19T12:03:29.096Z,7.90
2023-05-19T12:05:58.171Z,6.80
2023-05-19T12:08:27.993Z,6.90
2023-05-19T12:10:57.212Z,7.10
2023-05-19T12:13:26.271Z,6.40
2023-05-19T12:15:59.239Z,7.30
2023-05-19T12:18:34.268Z,6.70
2023-05-19T12:21:03.433Z,8.30
2023-05-19T12:23:34.172Z,6.70
2023-05-19T12:26:03.345Z,6.30
2023-05-19T12:28:32.751Z,6.10
2023-05-19T12:31:02.593Z,6.20
2023-05-19T12:33:33.665Z,7.80
2023-05-19T12:36:06.037Z,6.60
2023-05-19T12:38:37.905Z,6.80
2023-05-19T12:41:07.715Z,7.00
2023-05-19T12:43:38.176Z,5.80
2023-05-19T12:46:13.654Z,7.20
2023-05-19T12:48:46.377Z,6.50
2023-05-19T12:51:21.355Z,7.10
2023-05-19T12:53:51.270Z,7.50
2023-05-19T12:56:20.556Z,6.40
2023-05-19T12:58:56.956Z,6.80
2023-05-19T13:01:26.234Z,8.20
2023-05-19T13:03:56.180Z,8.10
2023-05-19T13:06:25.811Z,6.60
2023-05-19T13:08:54.789Z,7.30
2023-05-19T13:11:23.797Z,7.00
2023-05-19T13:13:53.302Z,8.30
2023-05-19T13:16:22.453Z,8.60
2023-05-19T13:18:51.837Z,7.70
2023-05-19T13:21:20.889Z,7.20
2023-05-19T13:23:50.214Z,7.70
2023-05-19T13:26:19.589Z,7.20
2023-05-19T13:28:49.308Z,7.40
2023-05-19T13:31:19.334Z,7.10
2023-05-19T13:33:48.404Z,8.70
2023-05-19T13:36:19.102Z,7.80
2023-05-19T13:38:48.135Z,6.90
2023-05-19T13:41:18.254Z,6.10
2023-05-19T13:43:47.146Z,6.50
2023-05-19T13:46:16.559Z,6.90
2023-05-19T13:48:45.953Z,5.70
2023-05-19T13:51:15.147Z,7.90
2023-05-19T13:53:45.046Z,7.10
2023-05-19T13:56:14.162Z,7.80
2023-05-19T13:58:43.145Z,8.20
2023-05-19T14:01:12.661Z,7.20
2023-05-19T14:03:41.819Z,7.40
2023-05-19T14:06:10.820Z,7.50
2023-05-19T14:08:39.826Z,7.40
2023-05-19T14:11:08.921Z,7.30
2023-05-19T14:13:41.749Z,6.90
2023-05-19T14:16:14.078Z,6.80
2023-05-19T14:18:43.068Z,8.00
2023-05-19T14:21:12.134Z,7.60
2023-05-19T14:23:41.815Z,7.60
2023-05-19T14:26:10.955Z,6.90
2023-05-19T14:28:40.156Z,6.30
2023-05-19T14:31:13.118Z,6.00
2023-05-19T14:33:42.464Z,6.70
2023-05-19T14:36:11.662Z,7.00
2023-05-19T14:38:40.849Z,5.20
2023-05-19T14:41:09.926Z,5.80
2023-05-19T14:43:39.030Z,6.90
2023-05-19T14:46:08.123Z,6.70
2023-05-19T14:48:37.093Z,6.30
2023-05-19T14:51:06.310Z,6.00
2023-05-19T14:53:35.250Z,5.30
2023-05-19T14:56:06.336Z,5.20
2023-05-19T14:58:36.162Z,6.00
2023-05-19T15:01:05.572Z,6.00
2023-05-19T15:03:34.611Z,6.00
2023-05-19T15:06:03.964Z,6.00
2023-05-19T15:08:33.032Z,5.30
2023-05-19T15:11:02.027Z,5.50
2023-05-19T15:13:30.917Z,5.80
2023-05-19T15:16:15.516Z,5.70
2023-05-19T15:18:46.393Z,6.50
2023-05-19T15:21:16.939Z,6.60
2023-05-19T15:23:45.997Z,5.70
2023-05-19T15:26:14.931Z,5.70
2023-05-19T15:28:44.026Z,5.10
2023-05-19T15:31:13.293Z,7.10
2023-05-19T15:33:42.839Z,6.70
2023-05-19T15:36:17.099Z,6.40
2023-05-19T15:38:46.243Z,6.10
2023-05-19T15:41:15.314Z,5.70
2023-05-19T15:43:47.056Z,6.00
2023-05-19T15:46:16.446Z,7.40
2023-05-19T15:48:46.215Z,8.10
2023-05-19T15:51:15.325Z,7.50
2023-05-19T15:53:44.501Z,7.00
2023-05-19T15:56:13.893Z,7.40
2023-05-19T15:58:43.009Z,5.90
2023-05-19T16:01:12.214Z,6.90
2023-05-19T16:03:41.536Z,6.40
2023-05-19T16:06:11.043Z,5.70
2023-05-19T16:08:40.130Z,6.20
2023-05-19T16:11:09.252Z,6.00
2023-05-19T16:13:38.385Z,6.70
2023-05-19T16:16:07.806Z,6.30
2023-05-19T16:18:36.980Z,6.70
2023-05-19T16:21:06.257Z,6.20
2023-05-19T16:23:37.540Z,5.90
2023-05-19T16:26:06.478Z,6.80
2023-05-19T16:28:35.702Z,5.60
2023-05-19T16:31:06.413Z,5.70
2023-05-19T16:33:35.859Z,5.60
2023-05-19T16:36:06.820Z,5.60
2023-05-19T16:38:35.938Z,6.10
2023-05-19T16:41:07.484Z,6.70
2023-05-19T16:43:36.816Z,6.90
2023-05-19T16:46:06.794Z,6.40
2023-05-19T16:48:36.146Z,6.70
2023-05-19T16:51:05.346Z,6.80
2023-05-19T16:53:34.228Z,6.50
2023-05-19T16:56:03.236Z,7.10
2023-05-19T16:58:32.619Z,6.90
2023-05-19T17:01:01.908Z,7.40
2023-05-19T17:03:32.476Z,6.60
2023-05-19T17:06:02.099Z,6.30
2023-05-19T17:08:31.374Z,7.20
2023-05-19T17:11:00.578Z,6.20
2023-05-19T17:13:35.059Z,7.10
2023-05-19T17:16:04.387Z,6.60
2023-05-19T17:18:33.269Z,6.60
2023-05-19T17:21:05.231Z,6.80
2023-05-19T17:23:34.446Z,7.60
2023-05-19T17:26:04.044Z,7.60
2023-05-19T17:28:33.014Z,8.10
2023-05-19T17:31:02.121Z,7.60
2023-05-19T17:33:31.363Z,7.00
2023-05-19T17:36:04.208Z,8.00
2023-05-19T17:38:33.324Z,7.10
2023-05-19T17:41:02.762Z,7.60
2023-05-19T17:43:31.676Z,7.10
2023-05-19T17:46:01.285Z,7.10
2023-05-19T17:48:31.588Z,6.60
2023-05-19T17:51:00.961Z,8.30
2023-05-19T17:53:30.013Z,9.40
2023-05-19T17:56:01.240Z,9.80
2023-05-19T17:58:31.074Z,8.40
2023-05-19T18:01:00.797Z,7.80
2023-05-19T18:03:30.475Z,8.90
2023-05-19T18:06:00.120Z,7.80
2023-05-19T18:08:29.289Z,7.90
2023-05-19T18:10:58.576Z,7.40
2023-05-19T18:13:27.983Z,8.40
2023-05-19T18:15:58.347Z,7.60
2023-05-19T18:18:27.615Z,8.00
2023-05-19T18:20:56.687Z,7.90
2023-05-19T18:23:26.215Z,7.30
2023-05-19T18:25:55.416Z,7.70
2023-05-19T18:28:24.384Z,7.10
2023-05-19T18:31:06.495Z,7.60
2023-05-19T18:33:35.683Z,8.00
2023-05-19T18:36:05.158Z,8.00
2023-05-19T18:38:34.175Z,7.40
2023-05-19T18:41:03.288Z,7.70
2023-05-19T18:43:32.883Z,7.30
2023-05-19T18:46:01.891Z,8.40
2023-05-19T18:48:30.764Z,8.30
2023-05-19T18:51:00.178Z,9.20
2023-05-19T18:53:29.249Z,8.30
2023-05-19T18:55:58.259Z,7.30
2023-05-19T18:58:27.262Z,7.30
2023-05-19T19:00:57.582Z,8.60
2023-05-19T19:03:27.189Z,7.60
2023-05-19T19:05:57.069Z,7.90
2023-05-19T19:08:26.530Z,8.40
2023-05-19T19:11:01.524Z,9.70
2023-05-19T19:13:30.617Z,9.70
2023-05-19T19:15:59.608Z,9.70
2023-05-19T19:18:28.728Z,8.10
2023-05-19T19:20:58.070Z,8.10
2023-05-19T19:23:26.889Z,7.90
2023-05-19T19:25:57.168Z,8.90
2023-05-19T19:28:26.906Z,7.60
2023-05-19T19:30:56.851Z,8.50
2023-05-19T19:33:25.847Z,7.60
2023-05-19T19:35:54.940Z,8.00
2023-05-19T19:38:24.126Z,7.90
2023-05-19T19:40:53.008Z,7.30
2023-05-19T19:43:22.116Z,8.30
2023-05-19T19:46:01.524Z,8.90
2023-05-19T19:48:31.153Z,7.90
2023-05-19T19:51:00.042Z,7.50
2023-05-19T19:53:29.064Z,8.10
2023-05-19T19:56:02.227Z,6.90
2023-05-19T19:58:31.417Z,7.60
2023-05-19T20:01:03.369Z,7.30
2023-05-19T20:03:33.832Z,7.90
2023-05-19T20:06:02.979Z,6.60
2023-05-19T20:08:31.995Z,6.90
2023-05-19T20:11:01.063Z,7.10
2023-05-19T20:13:30.792Z,7.60
2023-05-19T20:16:02.117Z,6.60
2023-05-19T20:18:31.258Z,6.50
2023-05-19T20:21:00.557Z,7.60
2023-05-19T20:23:29.541Z,7.90
2023-05-19T20:26:10.002Z,7.50
2023-05-19T20:28:41.490Z,8.50
2023-05-19T20:31:10.429Z,9.00
2023-05-19T20:33:39.650Z,8.10
2023-05-19T20:36:08.619Z,9.20
2023-05-19T20:38:37.508Z,8.70
2023-05-19T20:41:06.579Z,9.60
2023-05-19T20:43:35.590Z,9.30
2023-05-19T20:46:06.645Z,9.10
2023-05-19T20:48:35.943Z,9.40
2023-05-19T20:51:05.134Z,9.00
2023-05-19T20:53:34.013Z,10.50
2023-05-19T20:56:02.909Z,8.90
2023-05-19T20:58:31.920Z,9.40
2023-05-19T21:01:00.925Z,8.70
2023-05-19T21:03:30.948Z,8.40
2023-05-19T21:06:01.005Z,9.10
2023-05-19T21:08:30.318Z,9.20
2023-05-19T21:10:59.858Z,8.70
2023-05-19T21:13:28.936Z,9.10
2023-05-19T21:15:58.123Z,8.10
2023-05-19T21:18:27.935Z,8.70
2023-05-19T21:20:57.020Z,8.20
2023-05-19T21:23:26.126Z,7.80
2023-05-19T21:25:54.908Z,7.50
2023-05-19T21:28:23.899Z,9.70
2023-05-19T21:30:52.803Z,8.40
2023-05-19T21:33:21.876Z,9.00
2023-05-19T21:35:51.202Z,7.40
2023-05-19T21:38:23.744Z,9.10
2023-05-19T21:40:56.552Z,8.90
2023-05-19T21:43:25.748Z,8.80
2023-05-19T21:45:54.723Z,9.70
2023-05-19T21:48:23.828Z,9.60
2023-05-19T21:50:54.770Z,9.30
2023-05-19T21:53:25.103Z,8.60
2023-05-19T21:55:54.169Z,8.50
2023-05-19T21:58:23.489Z,9.40
2023-05-19T22:00:54.908Z,8.40
2023-05-19T22:03:24.654Z,9.10
2023-05-19T22:05:56.913Z,9.90
2023-05-19T22:08:26.730Z,10.80
2023-05-19T22:10:56.126Z,7.70
2023-05-19T22:13:25.217Z,9.50
2023-05-19T22:15:54.118Z,7.90
2023-05-19T22:18:23.627Z,9.90
2023-05-19T22:20:52.493Z,8.80
2023-05-19T22:23:21.495Z,8.30
2023-05-19T22:25:50.379Z,8.80
2023-05-19T22:28:19.371Z,7.70
2023-05-19T22:30:48.345Z,9.00
2023-05-19T22:33:17.248Z,7.70
2023-05-19T22:35:47.526Z,8.50
2023-05-19T22:38:16.690Z,8.20
2023-05-19T22:40:45.884Z,9.30
2023-05-19T22:43:17.213Z,8.00
2023-05-19T22:45:46.628Z,8.50
2023-05-19T22:48:16.830Z,9.60
2023-05-19T22:50:46.027Z,8.50
2023-05-19T22:53:15.008Z,9.20
2023-05-19T22:55:44.215Z,8.50
2023-05-19T22:58:13.173Z,9.20
2023-05-19T23:00:43.742Z,9.40
2023-05-19T23:03:12.791Z,8.70
2023-05-19T23:05:41.815Z,8.50
2023-05-19T23:08:11.428Z,8.10
2023-05-19T23:10:40.198Z,8.90
2023-05-19T23:13:10.711Z,8.40
2023-05-19T23:15:39.531Z,8.00
2023-05-19T23:18:09.478Z,10.10
2023-05-19T23:20:38.537Z,9.10
2023-05-19T23:23:07.410Z,8.70
2023-05-19T23:25:36.542Z,9.50
2023-05-19T23:28:05.926Z,8.40
2023-05-19T23:30:37.952Z,9.80
2023-05-19T23:33:07.220Z,10.00
2023-05-19T23:35:36.605Z,7.30
2023-05-19T23:38:05.974Z,8.80
2023-05-19T23:40:34.764Z,8.30
2023-05-19T23:43:03.652Z,8.00
2023-05-19T23:45:32.775Z,10.80
2023-05-19T23:48:02.009Z,9.30
2023-05-19T23:50:31.242Z,8.40
2023-05-19T23:53:01.274Z,8.20
2023-05-19T23:55:30.055Z,8.20
2023-05-19T23:57:59.242Z,8.30
